Winstonville, MS (38781)

3:16 PM CDT on May 24, 2017 (GMT -0500)
WKXY North Cleveland | | Change Station
Active Advisory: Flood Warning

Elev 144 ft 33.79 °N, 90.72 °W | Updated 1 minute ago

Mostly Cloudy
Mostly Cloudy
64.4 °F
Feels Like 64.4 °F
N
13.4
Wind Variable Wind from SW
Gusts 13.4 mph

Today
High -- | Low -- °F
--% Chance of Precip.
Yesterday
High -- | Low -- °F
Precip. -- in
Pressure 29.63 in
Visibility 10.0 miles
Clouds Scattered Clouds 3500 ft
Mostly Cloudy 5000 ft
Mostly Cloudy 10000 ft
Dew Point 53 °F
Humidity 66%
Rainfall 0.00 in
Snow Depth Not available.
5:56 AM 8:04 PM
Waning Crescent, 1% visible
METAR KRNV 241955Z AUTO 29012G17KT 10SM SCT035 BKN050 BKN100 20/13 A2963 RMK AO2 T02010131
Pressure 29.63 in
Visibility 10.0 miles
Clouds Scattered Clouds 3500 ft
Mostly Cloudy 5000 ft
Mostly Cloudy 10000 ft
Dew Point 53 °F
Humidity 66%
Rainfall 0.00 in
Snow Depth Not available.
5:56 AM 8:04 PM
Waning Crescent, 1% visible
METAR KRNV 241955Z AUTO 29012G17KT 10SM SCT035 BKN050 BKN100 20/13 A2963 RMK AO2 T02010131

Get Your Daily Forecast Email!

Thanks for signing up!

Be on the lookout for a verification email in your inbox.

You'll start receiving severe weather alerts in your inbox..

×

10-Day Weather Forecast

Almanac

Astronomy

May. 24, 2017 Rise Set
Actual Time
Civil Twilight
Nautical Twilight
Astronomical Twilight
Moon
Length of Visible Light
Length of Day
Tomorrow will be .
, % of the Moon is Illuminated

Today's Extremes

State Highs State Lows

Community

WunderPhotos

Category 6

Welcome to Category 6. This is the collective home for Weather Underground's featured writeups by Dr. Jeff Masters (right), Bob Henson (left), Chris Burt, and other regular contributors.

Nearby

Air Quality

  Air Quality AQ Index Pollutant
Not available.

Snow Depth

Station Depth Elevation

Earthquake Activity

City Distance Mag. Time & Date
Minimum magnitude displayed is 2.5.

Coastal Water Temperatures

Place Temperature

Stations

Nearby Weather Stations

Station Location Temp. Windchill Dew Point Humidity Wind Precip. Elev Updated Type
                   

Watches & Warnings

Flood Warning
Issued: 11:19 AM CDT May. 24, 2017 – National Weather Service

... Flood Warning extended until Sunday June 04...

The Flood Warning continues for
the Mississippi River near Arkansas City
* until Sunday June 04.
* At 11:00 am Wednesday the stage was 42.1 feet.
* Moderate flooding is occurring and moderate flooding is forecast.
* Flood stage is 37.0 feet.
* Forecast... the river will continue falling.
* Impact... at 42.0 feet... water approaches the first structure at the
Donaldson Point hunting club in Bolivar County.



              Flood observed forecast 6 am crest
location stg stg day time Thu Fri Sat crest time date

Lower Mississippi River
Arkansas City 37 42.1 Wed 11 am 42.0 41.8 41.3 falling




Lat... Lon 3340 9128 3357 9128 3413 9108 3412 9066
      3358 9106 3340 9105